createdAt,value
2024-02-18T00:01:41.769Z,102852.78
2024-02-18T00:04:08.706Z,102853.28
2024-02-18T00:06:35.497Z,102847.59
2024-02-18T00:09:02.315Z,102845.94
2024-02-18T00:11:28.806Z,102844.03
2024-02-18T00:13:55.493Z,102841.84
2024-02-18T00:16:23.149Z,102842.94
2024-02-18T00:18:49.843Z,102835.00
2024-02-18T00:21:18.727Z,102828.75
2024-02-18T00:23:48.357Z,102816.13
2024-02-18T00:26:15.643Z,102816.72
2024-02-18T00:28:42.148Z,102805.78
2024-02-18T00:31:08.703Z,102802.50
2024-02-18T00:33:35.321Z,102793.22
2024-02-18T00:36:02.137Z,102795.72
2024-02-18T00:38:28.967Z,102785.06
2024-02-18T00:40:56.245Z,102779.06
2024-02-18T00:43:22.726Z,102785.34
2024-02-18T00:45:49.350Z,102778.53
2024-02-18T00:48:16.050Z,102780.22
2024-02-18T00:50:42.702Z,102784.03
2024-02-18T00:53:09.396Z,102778.34
2024-02-18T00:55:35.856Z,102776.16
2024-02-18T00:58:02.487Z,102778.09
2024-02-18T01:00:29.119Z,102771.00
2024-02-18T01:02:55.665Z,102771.56
2024-02-18T01:05:22.153Z,102780.88
2024-02-18T01:07:48.692Z,102778.44
2024-02-18T01:10:15.322Z,102778.19
2024-02-18T01:12:41.814Z,102791.84
2024-02-18T01:15:08.700Z,102773.28
2024-02-18T01:17:35.181Z,102771.59
2024-02-18T01:20:01.810Z,102773.81
2024-02-18T01:22:28.342Z,102777.63
2024-02-18T01:24:54.814Z,102770.81
2024-02-18T01:27:21.413Z,102774.91
2024-02-18T01:29:48.086Z,102783.41
2024-02-18T01:32:14.546Z,102787.25
2024-02-18T01:34:40.949Z,102784.78
2024-02-18T01:37:07.400Z,102781.53
2024-02-18T01:39:34.146Z,102777.19
2024-02-18T01:42:00.585Z,102772.78
2024-02-18T01:44:27.190Z,102765.72
2024-02-18T01:46:53.795Z,102762.94
2024-02-18T01:49:21.213Z,102759.69
2024-02-18T01:51:48.531Z,102749.88
2024-02-18T01:54:16.313Z,102758.63
2024-02-18T01:56:43.340Z,102756.72
2024-02-18T01:59:10.486Z,102755.97
2024-02-18T02:01:38.469Z,102749.22
2024-02-18T02:04:05.660Z,102748.13
2024-02-18T02:06:32.287Z,102751.16
2024-02-18T02:08:58.759Z,102755.59
2024-02-18T02:11:25.394Z,102764.88
2024-02-18T02:13:52.073Z,102767.63
2024-02-18T02:16:19.760Z,102762.75
2024-02-18T02:18:46.394Z,102764.69
2024-02-18T02:21:12.951Z,102749.47
2024-02-18T02:23:39.533Z,102732.88
2024-02-18T02:26:06.912Z,102729.63
2024-02-18T02:28:37.616Z,102729.91
2024-02-18T02:31:05.151Z,102735.97
2024-02-18T02:33:31.742Z,102726.19
2024-02-18T02:35:58.227Z,102727.84
2024-02-18T02:38:24.624Z,102721.06
2024-02-18T02:40:51.061Z,102717.28
2024-02-18T02:43:17.896Z,102711.31
2024-02-18T02:45:44.622Z,102718.16
2024-02-18T02:48:11.276Z,102720.06
2024-02-18T02:50:39.247Z,102716.81
2024-02-18T02:53:06.680Z,102715.47
2024-02-18T02:55:33.173Z,102717.38
2024-02-18T02:58:00.418Z,102721.47
2024-02-18T03:00:27.055Z,102723.09
2024-02-18T03:02:53.545Z,102720.41
2024-02-18T03:05:20.042Z,102729.91
2024-02-18T03:07:46.632Z,102721.50
2024-02-18T03:10:13.217Z,102716.31
2024-02-18T03:12:40.231Z,102704.88
2024-02-18T03:15:07.087Z,102708.69
2024-02-18T03:17:36.700Z,102712.47
2024-02-18T03:20:05.193Z,102711.69
2024-02-18T03:22:31.700Z,102704.34
2024-02-18T03:24:58.168Z,102698.88
2024-02-18T03:27:24.638Z,102706.22
2024-02-18T03:29:51.154Z,102700.75
2024-02-18T03:32:17.593Z,102690.41
2024-02-18T03:34:44.713Z,102696.13
2024-02-18T03:37:11.859Z,102685.25
2024-02-18T03:39:39.105Z,102694.78
2024-02-18T03:42:06.123Z,102693.38
2024-02-18T03:44:32.594Z,102691.47
2024-02-18T03:46:59.052Z,102693.66
2024-02-18T03:49:25.660Z,102682.53
2024-02-18T03:51:52.335Z,102680.06
2024-02-18T03:54:20.135Z,102679.50
2024-02-18T03:56:46.757Z,102680.56
2024-02-18T03:59:16.500Z,102673.19
2024-02-18T04:01:43.063Z,102671.00
2024-02-18T04:04:09.997Z,102664.22
2024-02-18T04:06:36.570Z,102666.69
2024-02-18T04:09:03.054Z,102679.41
2024-02-18T04:11:29.875Z,102683.22
2024-02-18T04:13:56.542Z,102690.28
2024-02-18T04:16:22.985Z,102693.81
2024-02-18T04:18:49.761Z,102688.94
2024-02-18T04:21:16.331Z,102691.38
2024-02-18T04:23:42.971Z,102693.25
2024-02-18T04:26:09.411Z,102688.91
2024-02-18T04:28:36.439Z,102688.91
2024-02-18T04:31:03.586Z,102697.06
2024-02-18T04:33:30.218Z,102692.47
2024-02-18T04:35:56.726Z,102695.47
2024-02-18T04:38:23.194Z,102687.03
2024-02-18T04:40:49.671Z,102691.91
2024-02-18T04:43:17.191Z,102686.75
2024-02-18T04:45:44.894Z,102682.94
2024-02-18T04:48:11.463Z,102690.81
2024-02-18T04:50:38.562Z,102685.38
2024-02-18T04:53:05.606Z,102682.94
2024-02-18T04:55:32.241Z,102677.50
2024-02-18T04:57:59.921Z,102677.78
2024-02-18T05:00:26.561Z,102674.78
2024-02-18T05:02:53.122Z,102679.66
2024-02-18T05:05:19.724Z,102671.25
2024-02-18T05:07:46.260Z,102669.88
2024-02-18T05:10:12.771Z,102676.97
2024-02-18T05:12:39.669Z,102666.34
2024-02-18T05:15:06.551Z,102665.53
2024-02-18T05:17:33.016Z,102653.56
2024-02-18T05:19:59.840Z,102655.50
2024-02-18T05:22:26.468Z,102649.25
2024-02-18T05:24:52.937Z,102652.25
2024-02-18T05:27:19.601Z,102646.00
2024-02-18T05:29:46.096Z,102660.16
2024-02-18T05:32:12.515Z,102649.84
2024-02-18T05:34:39.111Z,102657.72
2024-02-18T05:37:05.700Z,102648.22
2024-02-18T05:39:32.232Z,102650.94
2024-02-18T05:41:58.731Z,102649.84
2024-02-18T05:44:25.108Z,102644.13
2024-02-18T05:46:51.542Z,102639.53
2024-02-18T05:49:18.040Z,102632.44
2024-02-18T05:51:44.522Z,102640.59
2024-02-18T05:54:10.930Z,102645.25
2024-02-18T05:56:37.381Z,102630.28
2024-02-18T05:59:05.030Z,102626.47
2024-02-18T06:01:31.615Z,102625.94
2024-02-18T06:03:58.158Z,102621.56
2024-02-18T06:06:24.747Z,102618.31
2024-02-18T06:08:51.377Z,102613.72
2024-02-18T06:11:20.669Z,102614.00
2024-02-18T06:13:47.828Z,102615.06
2024-02-18T06:16:15.489Z,102618.34
2024-02-18T06:18:42.497Z,102611.28
2024-02-18T06:21:09.032Z,102614.53
2024-02-18T06:23:35.397Z,102599.59
2024-02-18T06:26:03.988Z,102603.09
2024-02-18T06:28:33.898Z,102605.84
2024-02-18T06:31:04.186Z,102603.38
2024-02-18T06:33:31.147Z,102605.00
2024-02-18T06:35:58.226Z,102603.41
2024-02-18T06:38:24.755Z,102603.94
2024-02-18T06:40:51.454Z,102594.97
2024-02-18T06:43:17.975Z,102591.13
2024-02-18T06:45:44.503Z,102579.47
2024-02-18T06:48:11.053Z,102586.81
2024-02-18T06:50:37.581Z,102591.13
2024-02-18T06:53:04.236Z,102579.19
2024-02-18T06:55:30.660Z,102582.44
2024-02-18T06:57:57.078Z,102573.19
2024-02-18T07:00:24.087Z,102570.47
2024-02-18T07:02:50.563Z,102573.97
2024-02-18T07:05:17.127Z,102567.47
2024-02-18T07:07:43.649Z,102568.81
2024-02-18T07:10:10.199Z,102562.81
2024-02-18T07:12:36.702Z,102552.47
2024-02-18T07:15:03.759Z,102552.47
2024-02-18T07:17:30.342Z,102550.81
2024-02-18T07:19:56.982Z,102551.34
2024-02-18T07:22:25.057Z,102554.31
2024-02-18T07:24:51.512Z,102548.03
2024-02-18T07:27:17.944Z,102550.75
2024-02-18T07:29:44.406Z,102549.66
2024-02-18T07:32:10.890Z,102551.53
2024-02-18T07:34:37.494Z,102547.97
2024-02-18T07:37:05.103Z,102538.16
2024-02-18T07:39:31.717Z,102535.41
2024-02-18T07:41:58.265Z,102537.56
2024-02-18T07:44:24.752Z,102537.03
2024-02-18T07:46:51.272Z,102533.72
2024-02-18T07:49:19.564Z,102530.97
2024-02-18T07:51:46.247Z,102510.00
2024-02-18T07:54:12.722Z,102524.41
2024-02-18T07:56:44.413Z,102524.16
2024-02-18T07:59:11.494Z,102514.34
2024-02-18T08:01:38.114Z,102509.94
2024-02-18T08:04:04.762Z,102509.94
2024-02-18T08:06:33.212Z,102516.19
2024-02-18T08:09:00.578Z,102516.44
2024-02-18T08:11:27.172Z,102506.88
2024-02-18T08:13:53.842Z,102507.41
2024-02-18T08:16:20.788Z,102496.47
2024-02-18T08:18:47.813Z,102495.03
2024-02-18T08:21:14.307Z,102480.84
2024-02-18T08:23:40.813Z,102475.34
2024-02-18T08:26:08.869Z,102467.66
2024-02-18T08:28:35.370Z,102477.13
2024-02-18T08:31:01.825Z,102483.13
2024-02-18T08:33:28.408Z,102489.03
2024-02-18T08:35:55.999Z,102486.31
2024-02-18T08:38:22.601Z,102477.28
2024-02-18T08:40:49.072Z,102469.63
2024-02-18T08:43:15.624Z,102458.38
2024-02-18T08:45:42.141Z,102462.44
2024-02-18T08:48:09.359Z,102459.13
2024-02-18T08:50:35.904Z,102458.59
2024-02-18T08:53:03.407Z,102461.03
2024-02-18T08:55:29.893Z,102455.88
2024-02-18T08:57:56.478Z,102447.97
2024-02-18T09:00:23.029Z,102445.44
2024-02-18T09:02:49.546Z,102435.84
2024-02-18T09:05:16.169Z,102447.59
2024-02-18T09:07:43.469Z,102444.00
2024-02-18T09:10:10.665Z,102436.91
2024-02-18T09:12:37.404Z,102442.03
2024-02-18T09:15:04.251Z,102434.13
2024-02-18T09:17:30.703Z,102437.41
2024-02-18T09:19:57.516Z,102430.59
2024-02-18T09:22:24.066Z,102435.75
2024-02-18T09:24:50.674Z,102439.59
2024-02-18T09:27:17.774Z,102440.91
2024-02-18T09:29:44.288Z,102441.97
2024-02-18T09:32:10.960Z,102445.44
2024-02-18T09:34:38.789Z,102446.50
2024-02-18T09:37:05.641Z,102443.97
2024-02-18T09:39:32.316Z,102446.41
2024-02-18T09:41:59.477Z,102441.47
2024-02-18T09:44:28.839Z,102434.41
2024-02-18T09:46:59.403Z,102432.41
2024-02-18T09:49:29.528Z,102429.38
2024-02-18T09:51:56.511Z,102430.97
2024-02-18T09:54:23.811Z,102434.44
2024-02-18T09:56:50.353Z,102425.16
2024-02-18T09:59:18.055Z,102427.00
2024-02-18T10:01:48.814Z,102419.00
2024-02-18T10:04:15.577Z,102421.97
2024-02-18T10:06:44.902Z,102415.44
2024-02-18T10:09:11.380Z,102411.81
2024-02-18T10:11:37.891Z,102411.75
2024-02-18T10:14:07.111Z,102405.47
2024-02-18T10:16:37.069Z,102407.91
2024-02-18T10:19:03.813Z,102399.41
2024-02-18T10:21:30.371Z,102394.94
2024-02-18T10:23:56.897Z,102397.06
2024-02-18T10:26:24.653Z,102378.47
2024-02-18T10:28:51.225Z,102387.06
2024-02-18T10:31:17.822Z,102375.84
2024-02-18T10:33:44.420Z,102370.06
2024-02-18T10:36:13.094Z,102371.13
2024-02-18T10:38:47.277Z,102375.38
2024-02-18T10:41:17.729Z,102365.50
2024-02-18T10:43:51.302Z,102356.16
2024-02-18T10:46:23.207Z,102346.75
2024-02-18T10:48:56.488Z,102340.69
2024-02-18T10:51:27.474Z,102341.22
2024-02-18T10:54:04.488Z,102327.38
2024-02-18T10:56:31.696Z,102327.56
2024-02-18T10:59:00.934Z,102320.28
2024-02-18T11:01:29.945Z,102313.00
2024-02-18T11:04:00.313Z,102304.47
2024-02-18T11:06:27.478Z,102305.88
2024-02-18T11:08:55.624Z,102295.75
2024-02-18T11:11:23.501Z,102294.94
2024-02-18T11:13:51.572Z,102282.91
2024-02-18T11:16:18.355Z,102287.25
2024-02-18T11:18:45.454Z,102268.84
2024-02-18T11:21:14.580Z,102266.41
2024-02-18T11:23:52.502Z,102260.31
2024-02-18T11:26:18.991Z,102253.41
2024-02-18T11:28:48.646Z,102251.00
2024-02-18T11:31:29.417Z,102247.03
2024-02-18T11:33:57.808Z,102247.13
2024-02-18T11:36:25.676Z,102232.84
2024-02-18T11:38:54.629Z,102223.53
2024-02-18T11:41:27.981Z,102218.94
2024-02-18T11:43:55.711Z,102216.72
2024-02-18T11:46:29.383Z,102203.72
2024-02-18T11:48:57.069Z,102206.13
2024-02-18T11:51:25.480Z,102194.28
2024-02-18T11:53:52.142Z,102189.22
2024-02-18T11:56:19.397Z,102183.19
2024-02-18T11:58:49.264Z,102189.28
2024-02-18T12:01:16.768Z,102180.56
2024-02-18T12:03:49.575Z,102179.00
2024-02-18T12:06:16.307Z,102175.69
2024-02-18T12:08:42.986Z,102163.47
2024-02-18T12:11:09.469Z,102159.59
2024-02-18T12:13:35.948Z,102161.25
2024-02-18T12:16:05.089Z,102150.63
2024-02-18T12:18:32.078Z,102144.97
2024-02-18T12:20:59.116Z,102125.81
2024-02-18T12:23:26.289Z,102124.88
2024-02-18T12:25:54.178Z,102115.72
2024-02-18T12:28:20.966Z,102112.03
2024-02-18T12:30:48.299Z,102104.00
2024-02-18T12:33:16.146Z,102104.31
2024-02-18T12:35:42.896Z,102104.97
2024-02-18T12:38:10.599Z,102102.28
2024-02-18T12:40:40.723Z,102102.47
2024-02-18T12:45:43.412Z,102096.69
2024-02-18T12:48:14.316Z,102088.16
2024-02-18T12:50:41.265Z,102082.84
2024-02-18T12:53:09.032Z,102080.56
2024-02-18T12:55:36.961Z,102073.81
2024-02-18T12:58:03.727Z,102075.78
2024-02-18T13:00:31.125Z,102068.84
2024-02-18T13:02:57.670Z,102052.56
2024-02-18T13:05:25.703Z,102048.03
2024-02-18T13:07:57.548Z,102049.81
2024-02-18T13:10:24.229Z,102039.19
2024-02-18T13:12:51.357Z,102032.09
2024-02-18T13:15:18.613Z,102033.06
2024-02-18T13:17:49.702Z,102033.06
2024-02-18T13:20:16.299Z,102027.94
2024-02-18T13:22:43.874Z,102021.16
2024-02-18T13:25:10.499Z,102015.34
2024-02-18T13:27:37.220Z,102007.47
2024-02-18T13:30:04.407Z,102001.97
2024-02-18T13:32:30.896Z,102012.63
2024-02-18T13:34:57.675Z,102004.06
2024-02-18T13:37:24.407Z,101997.94
2024-02-18T13:39:51.242Z,101991.00
2024-02-18T13:42:20.795Z,101993.09
2024-02-18T13:44:48.326Z,101977.63
2024-02-18T13:47:15.411Z,101979.72
2024-02-18T13:49:42.078Z,101970.69
2024-02-18T13:52:08.999Z,101962.13
2024-02-18T13:54:35.482Z,101959.06
2024-02-18T13:57:01.994Z,101947.94
2024-02-18T13:59:30.218Z,101947.94
2024-02-18T14:01:58.973Z,101938.44
2024-02-18T14:04:25.498Z,101946.81
2024-02-18T14:06:52.147Z,101941.34
2024-02-18T14:09:18.690Z,101933.28
2024-02-18T14:11:45.177Z,101933.75
2024-02-18T14:14:11.815Z,101923.25
2024-02-18T14:16:40.351Z,101914.88
2024-02-18T14:19:07.051Z,101910.22
2024-02-18T14:21:34.345Z,101901.66
2024-02-18T14:24:00.974Z,101896.19
2024-02-18T14:26:27.719Z,101891.34
2024-02-18T14:28:55.406Z,101893.47
2024-02-18T14:31:21.935Z,101883.28
2024-02-18T14:33:48.665Z,101877.00
2024-02-18T14:36:16.328Z,101871.00
2024-02-18T14:38:42.746Z,101864.91
2024-02-18T14:41:10.475Z,101864.91
2024-02-18T14:43:36.969Z,101862.28
2024-02-18T14:46:03.519Z,101860.84
2024-02-18T14:48:30.056Z,101854.22
2024-02-18T14:50:56.676Z,101836.66
2024-02-18T14:53:23.133Z,101839.56
2024-02-18T14:55:49.688Z,101831.16
2024-02-18T14:58:17.566Z,101830.84
2024-02-18T15:00:44.336Z,101819.25
2024-02-18T15:03:10.889Z,101818.06
2024-02-18T15:05:37.564Z,101811.31
2024-02-18T15:08:04.691Z,101804.38
2024-02-18T15:10:31.334Z,101808.75
2024-02-18T15:12:57.855Z,101796.13
2024-02-18T15:15:24.381Z,101800.03
2024-02-18T15:17:50.914Z,101795.34
2024-02-18T15:20:17.519Z,101790.38
2024-02-18T15:22:44.232Z,101785.81
2024-02-18T15:25:12.150Z,101786.16
2024-02-18T15:27:39.077Z,101782.31
2024-02-18T15:30:06.593Z,101771.63
2024-02-18T15:32:33.136Z,101764.84
2024-02-18T15:34:59.612Z,101772.13
2024-02-18T15:37:26.310Z,101761.47
2024-02-18T15:39:52.870Z,101743.72
2024-02-18T15:42:19.335Z,101747.59
2024-02-18T15:44:45.831Z,101747.94
2024-02-18T15:47:12.388Z,101743.72
2024-02-18T15:49:39.132Z,101731.28
2024-02-18T15:52:06.388Z,101721.94
2024-02-18T15:54:32.933Z,101719.69
2024-02-18T15:56:59.502Z,101710.31
2024-02-18T15:59:26.101Z,101709.03
2024-02-18T16:01:53.970Z,101710.66
2024-02-18T16:04:20.984Z,101704.38
2024-02-18T16:06:47.746Z,101692.75
2024-02-18T16:09:14.807Z,101690.31
2024-02-18T16:11:41.378Z,101678.75
2024-02-18T16:14:07.889Z,101679.03
2024-02-18T16:16:34.306Z,101673.41
2024-02-18T16:19:01.001Z,101659.69
2024-02-18T16:21:29.000Z,101658.75
2024-02-18T16:24:00.393Z,101652.13
2024-02-18T16:26:27.962Z,101648.72
2024-02-18T16:28:54.446Z,101639.06
2024-02-18T16:31:21.043Z,101621.22
2024-02-18T16:33:47.708Z,101622.19
2024-02-18T16:36:14.165Z,101619.16
2024-02-18T16:38:42.431Z,101611.09
2024-02-18T16:41:08.901Z,101604.38
2024-02-18T16:43:36.357Z,101597.91
2024-02-18T16:46:04.133Z,101600.50
2024-02-18T16:48:33.518Z,101591.94
2024-02-18T16:51:00.213Z,101587.94
2024-02-18T16:53:27.339Z,101588.28
2024-02-18T16:55:53.841Z,101582.78
2024-02-18T16:58:20.633Z,101578.47
2024-02-18T17:00:47.539Z,101574.91
2024-02-18T17:03:14.102Z,101571.34
2024-02-18T17:05:40.890Z,101571.03
2024-02-18T17:08:11.711Z,101567.50
2024-02-18T17:10:40.503Z,101562.47
2024-02-18T17:13:09.330Z,101559.41
2024-02-18T17:15:37.007Z,101555.69
2024-02-18T17:18:04.253Z,101552.63
2024-02-18T17:20:31.568Z,101543.09
2024-02-18T17:23:01.297Z,101541.50
2024-02-18T17:25:30.389Z,101536.28
2024-02-18T17:27:56.836Z,101536.97
2024-02-18T17:30:23.376Z,101532.59
2024-02-18T17:32:50.477Z,101528.56
2024-02-18T17:35:17.160Z,101522.59
2024-02-18T17:37:44.966Z,101521.66
2024-02-18T17:40:11.711Z,101518.91
2024-02-18T17:42:38.323Z,101506.38
2024-02-18T17:45:06.182Z,101514.44
2024-02-18T17:47:33.267Z,101507.97
2024-02-18T17:50:00.373Z,101504.22
2024-02-18T17:52:27.044Z,101491.66
2024-02-18T17:54:53.483Z,101493.09
2024-02-18T17:57:20.255Z,101491.31
2024-02-18T17:59:53.028Z,101483.25
2024-02-18T18:02:19.530Z,101475.13
2024-02-18T18:04:46.732Z,101478.03
2024-02-18T18:07:13.513Z,101475.75
2024-02-18T18:09:40.303Z,101472.00
2024-02-18T18:12:07.011Z,101463.63
2024-02-18T18:14:33.439Z,101466.34
2024-02-18T18:16:59.868Z,101463.94
2024-02-18T18:19:26.405Z,101456.66
2024-02-18T18:21:52.848Z,101454.22
2024-02-18T18:24:19.408Z,101444.53
2024-02-18T18:26:45.856Z,101437.47
2024-02-18T18:29:12.415Z,101426.00
2024-02-18T18:31:39.955Z,101416.31
2024-02-18T18:34:06.444Z,101419.19
2024-02-18T18:36:33.117Z,101406.63
2024-02-18T18:38:59.629Z,101403.00
2024-02-18T18:41:26.156Z,101407.53
2024-02-18T18:43:52.547Z,101405.44
2024-02-18T18:46:19.071Z,101405.59
2024-02-18T18:48:45.680Z,101389.97
2024-02-18T18:51:12.332Z,101383.34
2024-02-18T18:53:39.319Z,101382.38
2024-02-18T18:56:06.332Z,101372.56
2024-02-18T18:58:34.376Z,101373.03
2024-02-18T19:01:00.884Z,101361.25
2024-02-18T19:03:27.447Z,101353.25
2024-02-18T19:05:53.969Z,101355.44
2024-02-18T19:08:20.471Z,101351.56
2024-02-18T19:10:47.060Z,101353.38
2024-02-18T19:13:24.428Z,101344.34
2024-02-18T19:16:00.368Z,101339.47
2024-02-18T19:18:26.889Z,101328.22
2024-02-18T19:20:54.048Z,101329.25
2024-02-18T19:23:22.003Z,101315.75
2024-02-18T19:25:48.497Z,101306.59
2024-02-18T19:28:15.776Z,101298.03
2024-02-18T19:30:42.298Z,101299.97
2024-02-18T19:33:08.809Z,101294.50
2024-02-18T19:35:37.399Z,101294.16
2024-02-18T19:38:04.010Z,101285.44
2024-02-18T19:40:33.561Z,101284.69
2024-02-18T19:43:00.112Z,101276.78
2024-02-18T19:45:27.106Z,101276.78
2024-02-18T19:47:57.831Z,101260.22
2024-02-18T19:50:25.672Z,101264.06
2024-02-18T19:52:52.138Z,101261.22
2024-02-18T19:55:18.686Z,101247.97
2024-02-18T19:57:46.378Z,101251.84
2024-02-18T20:00:13.359Z,101252.19
2024-02-18T20:02:40.661Z,101242.81
2024-02-18T20:05:08.579Z,101233.81
2024-02-18T20:07:36.957Z,101232.66
2024-02-18T20:10:04.180Z,101226.03
2024-02-18T20:12:30.936Z,101221.72
2024-02-18T20:14:58.052Z,101222.84
2024-02-18T20:17:24.787Z,101211.09
2024-02-18T20:19:51.456Z,101208.69
2024-02-18T20:22:18.515Z,101205.94
2024-02-18T20:24:47.441Z,101202.06
2024-02-18T20:27:15.511Z,101205.94
2024-02-18T20:29:42.157Z,101197.25
2024-02-18T20:32:08.836Z,101200.94
2024-02-18T20:34:37.768Z,101192.72
2024-02-18T20:37:07.782Z,101191.44
2024-02-18T20:39:38.260Z,101186.28
2024-02-18T20:42:04.885Z,101182.09
2024-02-18T20:44:31.307Z,101179.69
2024-02-18T20:46:57.928Z,101176.81
2024-02-18T20:49:25.189Z,101172.13
2024-02-18T20:51:52.629Z,101167.31
2024-02-18T20:54:21.056Z,101166.28
2024-02-18T20:56:48.527Z,101160.16
2024-02-18T20:59:15.945Z,101155.81
2024-02-18T21:01:43.662Z,101153.06
2024-02-18T21:04:10.245Z,101144.63
2024-02-18T21:06:36.882Z,101148.03
2024-02-18T21:09:04.902Z,101142.25
2024-02-18T21:11:31.301Z,101134.47
2024-02-18T21:13:58.427Z,101138.56
2024-02-18T21:16:25.093Z,101125.56
2024-02-18T21:18:51.651Z,101126.94
2024-02-18T21:21:18.865Z,101128.66
2024-02-18T21:23:45.273Z,101122.44
2024-02-18T21:26:18.611Z,101109.44
2024-02-18T21:28:49.761Z,101100.53
2024-02-18T21:31:16.954Z,101106.00
2024-02-18T21:33:43.694Z,101103.94
2024-02-18T21:36:15.368Z,101098.03
2024-02-18T21:38:42.018Z,101093.22
2024-02-18T21:41:11.077Z,101085.22
2024-02-18T21:43:37.581Z,101085.47
2024-02-18T21:46:04.146Z,101074.28
2024-02-18T21:48:31.454Z,101079.88
2024-02-18T21:50:57.953Z,101071.19
2024-02-18T21:53:24.374Z,101065.34
2024-02-18T21:55:50.962Z,101058.75
2024-02-18T21:58:17.549Z,101053.94
2024-02-18T22:00:44.102Z,101054.06
2024-02-18T22:03:10.620Z,101046.97
2024-02-18T22:05:37.781Z,101041.03
2024-02-18T22:08:05.361Z,101036.47
2024-02-18T22:10:32.299Z,101025.06
2024-02-18T22:12:58.993Z,101029.03
2024-02-18T22:15:25.567Z,101025.53
2024-02-18T22:17:52.645Z,101017.19
2024-02-18T22:20:21.064Z,101015.13
2024-02-18T22:22:47.534Z,101005.63
2024-02-18T22:25:14.306Z,101008.50
2024-02-18T22:27:40.898Z,101002.91
2024-02-18T22:30:14.941Z,101002.91
2024-02-18T22:32:41.712Z,100993.31
2024-02-18T22:35:08.500Z,100992.28
2024-02-18T22:37:35.100Z,100977.13
2024-02-18T22:40:01.643Z,100978.03
2024-02-18T22:42:28.167Z,100973.25
2024-02-18T22:44:54.589Z,100963.44
2024-02-18T22:47:20.960Z,100960.13
2024-02-18T22:49:47.432Z,100958.97
2024-02-18T22:52:14.004Z,100956.22
2024-02-18T22:54:42.763Z,100955.53
2024-02-18T22:57:09.308Z,100945.72
2024-02-18T22:59:35.699Z,100943.00
2024-02-18T23:02:02.186Z,100934.31
2024-02-18T23:04:28.606Z,100940.69
2024-02-18T23:06:55.066Z,100930.53
2024-02-18T23:09:21.500Z,100925.50
2024-02-18T23:11:47.973Z,100931.34
2024-02-18T23:14:14.418Z,100926.06
2024-02-18T23:16:40.881Z,100923.13
2024-02-18T23:19:07.379Z,100920.25
2024-02-18T23:21:35.411Z,100917.63
2024-02-18T23:24:01.837Z,100907.56
2024-02-18T23:26:28.241Z,100906.00
2024-02-18T23:28:54.651Z,100908.84
2024-02-18T23:31:21.044Z,100893.88
2024-02-18T23:33:47.610Z,100896.75
2024-02-18T23:36:14.147Z,100896.84
2024-02-18T23:38:40.553Z,100899.84
2024-02-18T23:41:07.478Z,100896.41
2024-02-18T23:43:41.535Z,100890.94
2024-02-18T23:46:09.524Z,100896.84
2024-02-18T23:48:36.793Z,100883.38
2024-02-18T23:51:04.414Z,100881.78
2024-02-18T23:53:31.258Z,100872.53
2024-02-18T23:55:57.690Z,100874.16
2024-02-18T23:58:24.107Z,100866.63
